sensor_id;sensor_type;location;lat;lon;timestamp;temperature;humidity
19206;DHT22;59358;52.134;5.596;2022-12-18T00:01:15;-2.90;99.90
19206;DHT22;59358;52.134;5.596;2022-12-18T00:03:43;-2.90;99.90
19206;DHT22;59358;52.134;5.596;2022-12-18T00:06:10;-2.90;99.90
19206;DHT22;59358;52.134;5.596;2022-12-18T00:08:37;-2.90;99.90
19206;DHT22;59358;52.134;5.596;2022-12-18T00:11:04;-2.90;99.90
19206;DHT22;59358;52.134;5.596;2022-12-18T00:13:33;-2.90;99.90
19206;DHT22;59358;52.134;5.596;2022-12-18T00:16:02;-2.90;99.90
19206;DHT22;59358;52.134;5.596;2022-12-18T00:18:29;-3.00;99.90
19206;DHT22;59358;52.134;5.596;2022-12-18T00:20:58;-3.00;99.90
19206;DHT22;59358;52.134;5.596;2022-12-18T00:23:26;-3.10;99.90
19206;DHT22;59358;52.134;5.596;2022-12-18T00:25:52;-3.10;99.90
19206;DHT22;59358;52.134;5.596;2022-12-18T00:28:19;-3.10;99.90
19206;DHT22;59358;52.134;5.596;2022-12-18T00:30:47;-3.10;99.90
19206;DHT22;59358;52.134;5.596;2022-12-18T00:33:16;-3.20;99.90
19206;DHT22;59358;52.134;5.596;2022-12-18T00:35:43;-3.20;99.90
19206;DHT22;59358;52.134;5.596;2022-12-18T00:38:10;-3.20;99.90
19206;DHT22;59358;52.134;5.596;2022-12-18T00:40:37;-3.30;99.90
19206;DHT22;59358;52.134;5.596;2022-12-18T00:43:04;-3.20;99.90
19206;DHT22;59358;52.134;5.596;2022-12-18T00:45:30;-3.30;99.90
19206;DHT22;59358;52.134;5.596;2022-12-18T00:47:59;-3.20;99.90
19206;DHT22;59358;52.134;5.596;2022-12-18T00:50:26;-3.20;99.90
19206;DHT22;59358;52.134;5.596;2022-12-18T00:52:53;-3.20;99.90
19206;DHT22;59358;52.134;5.596;2022-12-18T00:55:19;-3.20;99.90
19206;DHT22;59358;52.134;5.596;2022-12-18T00:57:46;-3.20;99.90
19206;DHT22;59358;52.134;5.596;2022-12-18T01:00:14;-3.30;99.90
19206;DHT22;59358;52.134;5.596;2022-12-18T01:02:41;-3.40;99.90
19206;DHT22;59358;52.134;5.596;2022-12-18T01:05:11;-3.40;99.90
19206;DHT22;59358;52.134;5.596;2022-12-18T01:07:38;-3.50;99.90
19206;DHT22;59358;52.134;5.596;2022-12-18T01:10:07;-3.60;99.90
19206;DHT22;59358;52.134;5.596;2022-12-18T01:12:34;-3.70;99.90
19206;DHT22;59358;52.134;5.596;2022-12-18T01:15:01;-3.90;99.90
19206;DHT22;59358;52.134;5.596;2022-12-18T01:17:28;-4.00;99.90
19206;DHT22;59358;52.134;5.596;2022-12-18T01:19:55;-4.00;99.90
19206;DHT22;59358;52.134;5.596;2022-12-18T01:22:26;-4.10;99.90
19206;DHT22;59358;52.134;5.596;2022-12-18T01:24:53;-4.20;99.90
19206;DHT22;59358;52.134;5.596;2022-12-18T01:27:20;-4.30;99.90
19206;DHT22;59358;52.134;5.596;2022-12-18T01:29:48;-4.30;99.90
19206;DHT22;59358;52.134;5.596;2022-12-18T01:32:15;-4.40;99.90
19206;DHT22;59358;52.134;5.596;2022-12-18T01:34:42;-4.50;99.90
19206;DHT22;59358;52.134;5.596;2022-12-18T01:37:08;-4.50;99.90
19206;DHT22;59358;52.134;5.596;2022-12-18T01:39:37;-4.60;99.90
19206;DHT22;59358;52.134;5.596;2022-12-18T01:42:10;-4.70;99.90
19206;DHT22;59358;52.134;5.596;2022-12-18T01:45:03;-4.70;99.90
19206;DHT22;59358;52.134;5.596;2022-12-18T01:47:34;-4.80;99.90
19206;DHT22;59358;52.134;5.596;2022-12-18T01:50:06;-4.80;99.90
19206;DHT22;59358;52.134;5.596;2022-12-18T01:52:33;-4.80;99.90
19206;DHT22;59358;52.134;5.596;2022-12-18T01:55:05;-4.80;99.90
19206;DHT22;59358;52.134;5.596;2022-12-18T01:57:32;-4.80;99.90
19206;DHT22;59358;52.134;5.596;2022-12-18T02:00:01;-4.90;99.90
19206;DHT22;59358;52.134;5.596;2022-12-18T02:02:28;-4.90;99.90
19206;DHT22;59358;52.134;5.596;2022-12-18T02:04:56;-4.90;99.90
19206;DHT22;59358;52.134;5.596;2022-12-18T02:07:29;-4.90;99.90
19206;DHT22;59358;52.134;5.596;2022-12-18T02:10:00;-5.00;99.90
19206;DHT22;59358;52.134;5.596;2022-12-18T02:12:38;-5.00;99.90
19206;DHT22;59358;52.134;5.596;2022-12-18T02:15:13;-5.00;99.90
19206;DHT22;59358;52.134;5.596;2022-12-18T02:17:46;-5.00;99.90
19206;DHT22;59358;52.134;5.596;2022-12-18T02:20:17;-5.00;99.90
19206;DHT22;59358;52.134;5.596;2022-12-18T02:22:59;-5.10;99.90
19206;DHT22;59358;52.134;5.596;2022-12-18T02:25:40;-5.20;99.90
19206;DHT22;59358;52.134;5.596;2022-12-18T02:28:13;-5.20;99.90
19206;DHT22;59358;52.134;5.596;2022-12-18T02:30:42;-5.20;99.90
19206;DHT22;59358;52.134;5.596;2022-12-18T02:33:11;-5.20;99.90
19206;DHT22;59358;52.134;5.596;2022-12-18T02:35:40;-5.20;99.90
19206;DHT22;59358;52.134;5.596;2022-12-18T02:38:09;-5.20;99.90
19206;DHT22;59358;52.134;5.596;2022-12-18T02:40:37;-5.30;99.90
19206;DHT22;59358;52.134;5.596;2022-12-18T02:43:07;-5.30;99.90
19206;DHT22;59358;52.134;5.596;2022-12-18T02:45:36;-5.40;99.90
19206;DHT22;59358;52.134;5.596;2022-12-18T02:48:11;-5.30;99.90
19206;DHT22;59358;52.134;5.596;2022-12-18T02:50:44;-5.40;99.90
19206;DHT22;59358;52.134;5.596;2022-12-18T02:53:17;-5.50;99.90
19206;DHT22;59358;52.134;5.596;2022-12-18T02:55:54;-5.50;99.90
19206;DHT22;59358;52.134;5.596;2022-12-18T02:58:28;-5.50;99.90
19206;DHT22;59358;52.134;5.596;2022-12-18T03:01:03;-5.50;99.90
19206;DHT22;59358;52.134;5.596;2022-12-18T03:03:35;-5.60;99.90
19206;DHT22;59358;52.134;5.596;2022-12-18T03:06:06;-5.60;99.90
19206;DHT22;59358;52.134;5.596;2022-12-18T03:08:38;-5.60;99.90
19206;DHT22;59358;52.134;5.596;2022-12-18T03:11:08;-5.60;99.90
19206;DHT22;59358;52.134;5.596;2022-12-18T03:13:38;-5.70;99.90
19206;DHT22;59358;52.134;5.596;2022-12-18T03:16:11;-5.70;99.90
19206;DHT22;59358;52.134;5.596;2022-12-18T03:18:42;-5.70;99.90
19206;DHT22;59358;52.134;5.596;2022-12-18T03:21:12;-5.80;99.90
19206;DHT22;59358;52.134;5.596;2022-12-18T03:23:42;-5.80;99.90
19206;DHT22;59358;52.134;5.596;2022-12-18T03:26:15;-5.90;99.90
19206;DHT22;59358;52.134;5.596;2022-12-18T03:28:46;-5.90;99.90
19206;DHT22;59358;52.134;5.596;2022-12-18T03:31:16;-5.90;99.90
19206;DHT22;59358;52.134;5.596;2022-12-18T03:33:46;-5.90;99.90
19206;DHT22;59358;52.134;5.596;2022-12-18T03:36:13;-5.90;99.90
19206;DHT22;59358;52.134;5.596;2022-12-18T03:38:41;-5.90;99.90
19206;DHT22;59358;52.134;5.596;2022-12-18T03:41:14;-5.90;99.90
19206;DHT22;59358;52.134;5.596;2022-12-18T03:43:48;-5.90;99.90
19206;DHT22;59358;52.134;5.596;2022-12-18T03:46:21;-5.80;99.90
19206;DHT22;59358;52.134;5.596;2022-12-18T03:48:57;-5.80;99.90
19206;DHT22;59358;52.134;5.596;2022-12-18T03:51:28;-5.80;99.90
19206;DHT22;59358;52.134;5.596;2022-12-18T03:53:58;-5.80;99.90
19206;DHT22;59358;52.134;5.596;2022-12-18T03:56:29;-5.80;99.90
19206;DHT22;59358;52.134;5.596;2022-12-18T03:58:59;-5.80;99.90
19206;DHT22;59358;52.134;5.596;2022-12-18T04:01:31;-5.90;99.90
19206;DHT22;59358;52.134;5.596;2022-12-18T04:04:00;-5.90;99.90
19206;DHT22;59358;52.134;5.596;2022-12-18T04:06:28;-5.90;99.90
19206;DHT22;59358;52.134;5.596;2022-12-18T04:08:57;-5.80;99.90
19206;DHT22;59358;52.134;5.596;2022-12-18T04:11:24;-5.90;99.90
19206;DHT22;59358;52.134;5.596;2022-12-18T04:13:55;-5.90;99.90
19206;DHT22;59358;52.134;5.596;2022-12-18T04:16:22;-5.80;99.90
19206;DHT22;59358;52.134;5.596;2022-12-18T04:18:50;-5.80;99.90
19206;DHT22;59358;52.134;5.596;2022-12-18T04:21:17;-5.90;99.90
19206;DHT22;59358;52.134;5.596;2022-12-18T04:23:44;-5.90;99.90
19206;DHT22;59358;52.134;5.596;2022-12-18T04:26:10;-5.90;99.90
19206;DHT22;59358;52.134;5.596;2022-12-18T04:28:37;-6.00;99.90
19206;DHT22;59358;52.134;5.596;2022-12-18T04:31:04;-6.00;99.90
19206;DHT22;59358;52.134;5.596;2022-12-18T04:33:31;-6.10;99.90
19206;DHT22;59358;52.134;5.596;2022-12-18T04:35:59;-6.10;99.90
19206;DHT22;59358;52.134;5.596;2022-12-18T04:38:26;-6.00;99.90
19206;DHT22;59358;52.134;5.596;2022-12-18T04:40:53;-6.00;99.90
19206;DHT22;59358;52.134;5.596;2022-12-18T04:43:20;-6.00;99.90
19206;DHT22;59358;52.134;5.596;2022-12-18T04:45:46;-6.00;99.90
19206;DHT22;59358;52.134;5.596;2022-12-18T04:48:14;-6.00;99.90
19206;DHT22;59358;52.134;5.596;2022-12-18T04:50:41;-6.00;99.90
19206;DHT22;59358;52.134;5.596;2022-12-18T04:53:09;-6.00;99.90
19206;DHT22;59358;52.134;5.596;2022-12-18T04:55:36;-6.00;99.90
19206;DHT22;59358;52.134;5.596;2022-12-18T04:58:03;-6.00;99.90
19206;DHT22;59358;52.134;5.596;2022-12-18T05:00:30;-6.00;99.90
19206;DHT22;59358;52.134;5.596;2022-12-18T05:02:56;-6.10;99.90
19206;DHT22;59358;52.134;5.596;2022-12-18T05:05:23;-6.10;99.90
19206;DHT22;59358;52.134;5.596;2022-12-18T05:07:50;-6.20;99.90
19206;DHT22;59358;52.134;5.596;2022-12-18T05:10:18;-6.20;99.90
19206;DHT22;59358;52.134;5.596;2022-12-18T05:12:45;-6.20;99.90
19206;DHT22;59358;52.134;5.596;2022-12-18T05:15:28;-6.20;99.90
19206;DHT22;59358;52.134;5.596;2022-12-18T05:17:58;-6.20;99.90
19206;DHT22;59358;52.134;5.596;2022-12-18T05:20:27;-6.20;99.90
19206;DHT22;59358;52.134;5.596;2022-12-18T05:22:54;-6.30;99.90
19206;DHT22;59358;52.134;5.596;2022-12-18T05:25:23;-6.20;99.90
19206;DHT22;59358;52.134;5.596;2022-12-18T05:27:50;-6.20;99.90
19206;DHT22;59358;52.134;5.596;2022-12-18T05:30:17;-6.20;99.90
19206;DHT22;59358;52.134;5.596;2022-12-18T05:32:44;-6.20;99.90
19206;DHT22;59358;52.134;5.596;2022-12-18T05:35:11;-6.20;99.90
19206;DHT22;59358;52.134;5.596;2022-12-18T05:37:38;-6.20;99.90
19206;DHT22;59358;52.134;5.596;2022-12-18T05:40:06;-6.20;99.90
19206;DHT22;59358;52.134;5.596;2022-12-18T05:42:34;-6.20;99.90
19206;DHT22;59358;52.134;5.596;2022-12-18T05:45:01;-6.30;99.90
19206;DHT22;59358;52.134;5.596;2022-12-18T05:47:28;-6.30;99.90
19206;DHT22;59358;52.134;5.596;2022-12-18T05:49:55;-6.30;99.90
19206;DHT22;59358;52.134;5.596;2022-12-18T05:52:22;-6.20;99.90
19206;DHT22;59358;52.134;5.596;2022-12-18T05:54:49;-6.30;99.90
19206;DHT22;59358;52.134;5.596;2022-12-18T05:57:16;-6.30;99.90
19206;DHT22;59358;52.134;5.596;2022-12-18T05:59:44;-6.30;99.90
19206;DHT22;59358;52.134;5.596;2022-12-18T06:02:11;-6.20;99.90
19206;DHT22;59358;52.134;5.596;2022-12-18T06:04:38;-6.10;99.90
19206;DHT22;59358;52.134;5.596;2022-12-18T06:07:04;-6.00;99.90
19206;DHT22;59358;52.134;5.596;2022-12-18T06:09:31;-5.90;99.90
19206;DHT22;59358;52.134;5.596;2022-12-18T06:11:58;-5.80;99.90
19206;DHT22;59358;52.134;5.596;2022-12-18T06:16:53;-5.80;99.90
19206;DHT22;59358;52.134;5.596;2022-12-18T06:19:19;-5.80;99.90
19206;DHT22;59358;52.134;5.596;2022-12-18T06:21:47;-5.80;99.90
19206;DHT22;59358;52.134;5.596;2022-12-18T06:24:14;-5.90;99.90
19206;DHT22;59358;52.134;5.596;2022-12-18T06:26:41;-5.90;99.90
19206;DHT22;59358;52.134;5.596;2022-12-18T06:29:08;-5.90;99.90
19206;DHT22;59358;52.134;5.596;2022-12-18T06:31:35;-5.80;99.90
19206;DHT22;59358;52.134;5.596;2022-12-18T06:34:04;-5.70;99.90
19206;DHT22;59358;52.134;5.596;2022-12-18T06:36:31;-5.80;99.90
19206;DHT22;59358;52.134;5.596;2022-12-18T06:38:58;-5.80;99.90
19206;DHT22;59358;52.134;5.596;2022-12-18T06:41:26;-5.80;99.90
19206;DHT22;59358;52.134;5.596;2022-12-18T06:43:52;-5.90;99.90
19206;DHT22;59358;52.134;5.596;2022-12-18T06:46:19;-6.00;99.90
19206;DHT22;59358;52.134;5.596;2022-12-18T06:48:48;-6.00;99.90
19206;DHT22;59358;52.134;5.596;2022-12-18T06:51:18;-6.10;99.90
19206;DHT22;59358;52.134;5.596;2022-12-18T06:53:45;-6.10;99.90
19206;DHT22;59358;52.134;5.596;2022-12-18T06:56:12;-6.10;99.90
19206;DHT22;59358;52.134;5.596;2022-12-18T06:58:40;-6.10;99.90
19206;DHT22;59358;52.134;5.596;2022-12-18T07:01:08;-6.10;99.90
19206;DHT22;59358;52.134;5.596;2022-12-18T07:03:35;-6.10;99.90
19206;DHT22;59358;52.134;5.596;2022-12-18T07:06:03;-6.20;99.90
19206;DHT22;59358;52.134;5.596;2022-12-18T07:08:31;-6.20;99.90
19206;DHT22;59358;52.134;5.596;2022-12-18T07:10:58;-6.20;99.90
19206;DHT22;59358;52.134;5.596;2022-12-18T07:13:25;-6.20;99.90
19206;DHT22;59358;52.134;5.596;2022-12-18T07:15:52;-6.20;99.90
19206;DHT22;59358;52.134;5.596;2022-12-18T07:18:19;-6.20;99.90
19206;DHT22;59358;52.134;5.596;2022-12-18T07:20:45;-6.20;99.90
19206;DHT22;59358;52.134;5.596;2022-12-18T07:23:13;-6.30;99.90
19206;DHT22;59358;52.134;5.596;2022-12-18T07:25:41;-6.20;99.90
19206;DHT22;59358;52.134;5.596;2022-12-18T07:28:07;-6.20;99.90
19206;DHT22;59358;52.134;5.596;2022-12-18T07:30:37;-6.20;99.90
19206;DHT22;59358;52.134;5.596;2022-12-18T07:33:04;-6.20;99.90
19206;DHT22;59358;52.134;5.596;2022-12-18T07:35:32;-6.20;99.90
19206;DHT22;59358;52.134;5.596;2022-12-18T07:37:59;-6.20;99.90
19206;DHT22;59358;52.134;5.596;2022-12-18T07:40:26;-6.10;99.90
19206;DHT22;59358;52.134;5.596;2022-12-18T07:42:54;-6.00;99.90
19206;DHT22;59358;52.134;5.596;2022-12-18T07:45:21;-5.90;99.90
19206;DHT22;59358;52.134;5.596;2022-12-18T07:47:47;-5.70;99.90
19206;DHT22;59358;52.134;5.596;2022-12-18T07:50:14;-5.60;99.90
19206;DHT22;59358;52.134;5.596;2022-12-18T07:52:41;-5.40;99.90
19206;DHT22;59358;52.134;5.596;2022-12-18T07:55:08;-5.20;99.90
19206;DHT22;59358;52.134;5.596;2022-12-18T07:57:35;-5.20;99.90
19206;DHT22;59358;52.134;5.596;2022-12-18T08:00:04;-5.00;99.90
19206;DHT22;59358;52.134;5.596;2022-12-18T08:02:31;-4.90;99.90
19206;DHT22;59358;52.134;5.596;2022-12-18T08:04:58;-4.80;99.90
19206;DHT22;59358;52.134;5.596;2022-12-18T08:07:25;-4.70;99.90
19206;DHT22;59358;52.134;5.596;2022-12-18T08:09:51;-4.60;99.90
19206;DHT22;59358;52.134;5.596;2022-12-18T08:12:18;-4.50;99.90
19206;DHT22;59358;52.134;5.596;2022-12-18T08:14:45;-4.40;99.90
19206;DHT22;59358;52.134;5.596;2022-12-18T08:17:13;-4.40;99.90
19206;DHT22;59358;52.134;5.596;2022-12-18T08:19:40;-4.30;99.90
19206;DHT22;59358;52.134;5.596;2022-12-18T08:22:07;-4.20;99.90
19206;DHT22;59358;52.134;5.596;2022-12-18T08:24:33;-4.10;99.90
19206;DHT22;59358;52.134;5.596;2022-12-18T08:27:00;-4.10;99.90
19206;DHT22;59358;52.134;5.596;2022-12-18T08:29:27;-4.00;99.90
19206;DHT22;59358;52.134;5.596;2022-12-18T08:31:54;-3.90;99.90
19206;DHT22;59358;52.134;5.596;2022-12-18T08:34:22;-3.80;99.90
19206;DHT22;59358;52.134;5.596;2022-12-18T08:36:49;-3.80;99.90
19206;DHT22;59358;52.134;5.596;2022-12-18T08:39:16;-3.70;99.90
19206;DHT22;59358;52.134;5.596;2022-12-18T08:41:42;-3.60;99.90
19206;DHT22;59358;52.134;5.596;2022-12-18T08:44:29;-3.60;99.90
19206;DHT22;59358;52.134;5.596;2022-12-18T08:47:04;-3.50;99.90
19206;DHT22;59358;52.134;5.596;2022-12-18T08:49:32;-3.40;99.90
19206;DHT22;59358;52.134;5.596;2022-12-18T08:52:00;-3.30;99.90
19206;DHT22;59358;52.134;5.596;2022-12-18T08:54:29;-3.20;99.90
19206;DHT22;59358;52.134;5.596;2022-12-18T08:56:56;-3.20;99.90
19206;DHT22;59358;52.134;5.596;2022-12-18T08:59:22;-3.20;99.90
19206;DHT22;59358;52.134;5.596;2022-12-18T09:01:49;-3.10;99.90
19206;DHT22;59358;52.134;5.596;2022-12-18T09:04:17;-3.00;99.90
19206;DHT22;59358;52.134;5.596;2022-12-18T09:06:45;-2.90;99.90
19206;DHT22;59358;52.134;5.596;2022-12-18T09:09:12;-2.80;99.90
19206;DHT22;59358;52.134;5.596;2022-12-18T09:11:39;-2.70;99.90
19206;DHT22;59358;52.134;5.596;2022-12-18T09:14:06;-2.60;99.90
19206;DHT22;59358;52.134;5.596;2022-12-18T09:16:33;-2.60;99.90
19206;DHT22;59358;52.134;5.596;2022-12-18T09:19:02;-2.50;99.90
19206;DHT22;59358;52.134;5.596;2022-12-18T09:21:32;-2.40;99.90
19206;DHT22;59358;52.134;5.596;2022-12-18T09:24:00;-2.40;99.90
19206;DHT22;59358;52.134;5.596;2022-12-18T09:26:27;-2.30;99.90
19206;DHT22;59358;52.134;5.596;2022-12-18T09:28:54;-2.20;99.90
19206;DHT22;59358;52.134;5.596;2022-12-18T09:31:23;-2.10;99.90
19206;DHT22;59358;52.134;5.596;2022-12-18T09:33:50;-2.00;99.90
19206;DHT22;59358;52.134;5.596;2022-12-18T09:36:18;-2.00;99.90
19206;DHT22;59358;52.134;5.596;2022-12-18T09:38:45;-1.90;99.90
19206;DHT22;59358;52.134;5.596;2022-12-18T09:41:31;-1.80;99.90
19206;DHT22;59358;52.134;5.596;2022-12-18T09:44:02;-1.80;99.90
19206;DHT22;59358;52.134;5.596;2022-12-18T09:46:35;-1.70;99.90
19206;DHT22;59358;52.134;5.596;2022-12-18T09:49:07;-1.70;99.90
19206;DHT22;59358;52.134;5.596;2022-12-18T09:51:43;-1.80;99.90
19206;DHT22;59358;52.134;5.596;2022-12-18T09:54:14;-1.60;99.90
19206;DHT22;59358;52.134;5.596;2022-12-18T09:56:44;-1.60;99.90
19206;DHT22;59358;52.134;5.596;2022-12-18T09:59:20;-1.50;99.90
19206;DHT22;59358;52.134;5.596;2022-12-18T10:01:48;-1.50;99.90
19206;DHT22;59358;52.134;5.596;2022-12-18T10:04:15;-1.50;99.90
19206;DHT22;59358;52.134;5.596;2022-12-18T10:06:46;-1.40;99.90
19206;DHT22;59358;52.134;5.596;2022-12-18T10:09:23;-1.40;99.90
19206;DHT22;59358;52.134;5.596;2022-12-18T10:11:57;-1.30;99.90
19206;DHT22;59358;52.134;5.596;2022-12-18T10:14:34;-1.20;99.90
19206;DHT22;59358;52.134;5.596;2022-12-18T10:17:11;-1.20;99.90
19206;DHT22;59358;52.134;5.596;2022-12-18T10:19:43;-1.00;99.90
19206;DHT22;59358;52.134;5.596;2022-12-18T10:22:26;-0.90;99.90
19206;DHT22;59358;52.134;5.596;2022-12-18T10:25:01;-0.90;99.90
19206;DHT22;59358;52.134;5.596;2022-12-18T10:27:31;-0.80;99.90
19206;DHT22;59358;52.134;5.596;2022-12-18T10:29:58;-0.70;99.90
19206;DHT22;59358;52.134;5.596;2022-12-18T10:32:28;-0.70;99.90
19206;DHT22;59358;52.134;5.596;2022-12-18T10:34:57;-0.70;99.90
19206;DHT22;59358;52.134;5.596;2022-12-18T10:37:26;-0.60;99.90
19206;DHT22;59358;52.134;5.596;2022-12-18T10:40:10;-0.60;99.90
19206;DHT22;59358;52.134;5.596;2022-12-18T10:42:39;-0.50;99.90
19206;DHT22;59358;52.134;5.596;2022-12-18T10:45:10;-0.50;99.90
19206;DHT22;59358;52.134;5.596;2022-12-18T10:47:42;-0.50;99.90
19206;DHT22;59358;52.134;5.596;2022-12-18T10:50:19;-0.50;99.90
19206;DHT22;59358;52.134;5.596;2022-12-18T10:52:54;-0.40;99.90
19206;DHT22;59358;52.134;5.596;2022-12-18T10:55:22;-0.40;99.90
19206;DHT22;59358;52.134;5.596;2022-12-18T10:57:51;-0.30;99.90
19206;DHT22;59358;52.134;5.596;2022-12-18T11:00:27;-0.30;99.90
19206;DHT22;59358;52.134;5.596;2022-12-18T11:02:55;-0.30;99.90
19206;DHT22;59358;52.134;5.596;2022-12-18T11:05:32;-0.30;99.90
19206;DHT22;59358;52.134;5.596;2022-12-18T11:08:00;-0.30;99.90
19206;DHT22;59358;52.134;5.596;2022-12-18T11:10:30;-0.30;99.90
19206;DHT22;59358;52.134;5.596;2022-12-18T11:13:11;-0.20;99.90
19206;DHT22;59358;52.134;5.596;2022-12-18T11:15:40;-0.20;99.90
19206;DHT22;59358;52.134;5.596;2022-12-18T11:18:16;-0.10;99.90
19206;DHT22;59358;52.134;5.596;2022-12-18T11:20:50;-0.10;99.90
19206;DHT22;59358;52.134;5.596;2022-12-18T11:23:19;0.00;99.90
19206;DHT22;59358;52.134;5.596;2022-12-18T11:25:52;0.00;99.90
19206;DHT22;59358;52.134;5.596;2022-12-18T11:28:37;0.10;99.90
19206;DHT22;59358;52.134;5.596;2022-12-18T11:31:23;0.20;99.90
19206;DHT22;59358;52.134;5.596;2022-12-18T11:34:02;0.10;99.90
19206;DHT22;59358;52.134;5.596;2022-12-18T11:36:33;0.20;99.90
19206;DHT22;59358;52.134;5.596;2022-12-18T11:39:10;0.20;99.90
19206;DHT22;59358;52.134;5.596;2022-12-18T11:41:45;0.20;99.90
19206;DHT22;59358;52.134;5.596;2022-12-18T11:44:38;0.30;99.90
19206;DHT22;59358;52.134;5.596;2022-12-18T11:47:11;0.30;99.90
19206;DHT22;59358;52.134;5.596;2022-12-18T11:49:41;0.40;99.90
19206;DHT22;59358;52.134;5.596;2022-12-18T11:52:14;0.40;99.90
19206;DHT22;59358;52.134;5.596;2022-12-18T11:54:43;0.50;99.90
19206;DHT22;59358;52.134;5.596;2022-12-18T11:57:18;0.50;99.90
19206;DHT22;59358;52.134;5.596;2022-12-18T11:59:57;0.60;99.90
19206;DHT22;59358;52.134;5.596;2022-12-18T12:02:41;0.70;99.90
19206;DHT22;59358;52.134;5.596;2022-12-18T12:05:21;0.80;99.90
19206;DHT22;59358;52.134;5.596;2022-12-18T12:07:55;0.80;99.90
19206;DHT22;59358;52.134;5.596;2022-12-18T12:10:32;0.80;99.90
19206;DHT22;59358;52.134;5.596;2022-12-18T12:13:13;0.80;99.90
19206;DHT22;59358;52.134;5.596;2022-12-18T12:15:51;0.80;99.90
19206;DHT22;59358;52.134;5.596;2022-12-18T12:18:27;0.90;99.90
19206;DHT22;59358;52.134;5.596;2022-12-18T12:21:02;0.90;99.90
19206;DHT22;59358;52.134;5.596;2022-12-18T12:23:38;0.90;99.90
19206;DHT22;59358;52.134;5.596;2022-12-18T12:26:11;0.90;99.90
19206;DHT22;59358;52.134;5.596;2022-12-18T12:28:52;0.90;99.90
19206;DHT22;59358;52.134;5.596;2022-12-18T12:31:33;0.80;99.90
19206;DHT22;59358;52.134;5.596;2022-12-18T12:34:11;0.90;99.90
19206;DHT22;59358;52.134;5.596;2022-12-18T12:36:58;0.80;99.90
19206;DHT22;59358;52.134;5.596;2022-12-18T12:39:30;0.80;99.90
19206;DHT22;59358;52.134;5.596;2022-12-18T12:41:58;0.80;99.90
19206;DHT22;59358;52.134;5.596;2022-12-18T12:44:45;0.80;99.90
19206;DHT22;59358;52.134;5.596;2022-12-18T12:47:17;0.90;99.90
19206;DHT22;59358;52.134;5.596;2022-12-18T12:49:47;0.80;99.90
19206;DHT22;59358;52.134;5.596;2022-12-18T12:52:16;0.90;99.90
19206;DHT22;59358;52.134;5.596;2022-12-18T12:55:14;0.90;99.90
19206;DHT22;59358;52.134;5.596;2022-12-18T12:57:45;1.00;99.90
19206;DHT22;59358;52.134;5.596;2022-12-18T13:00:16;0.90;99.90
19206;DHT22;59358;52.134;5.596;2022-12-18T13:02:49;1.00;99.90
19206;DHT22;59358;52.134;5.596;2022-12-18T13:05:23;1.10;99.90
19206;DHT22;59358;52.134;5.596;2022-12-18T13:07:54;1.10;99.90
19206;DHT22;59358;52.134;5.596;2022-12-18T13:10:26;1.00;99.90
19206;DHT22;59358;52.134;5.596;2022-12-18T13:12:59;1.10;99.90
19206;DHT22;59358;52.134;5.596;2022-12-18T13:15:31;1.10;99.90
19206;DHT22;59358;52.134;5.596;2022-12-18T13:18:13;1.10;99.90
19206;DHT22;59358;52.134;5.596;2022-12-18T13:20:43;1.10;99.90
19206;DHT22;59358;52.134;5.596;2022-12-18T13:23:27;1.10;99.90
19206;DHT22;59358;52.134;5.596;2022-12-18T13:25:55;1.00;99.90
19206;DHT22;59358;52.134;5.596;2022-12-18T13:28:24;1.00;99.90
19206;DHT22;59358;52.134;5.596;2022-12-18T13:31:10;0.90;99.90
19206;DHT22;59358;52.134;5.596;2022-12-18T13:33:43;0.90;99.90
19206;DHT22;59358;52.134;5.596;2022-12-18T13:36:30;0.90;99.90
19206;DHT22;59358;52.134;5.596;2022-12-18T13:42:40;1.00;99.90
19206;DHT22;59358;52.134;5.596;2022-12-18T13:45:45;0.90;99.90
19206;DHT22;59358;52.134;5.596;2022-12-18T13:48:23;0.90;99.90
19206;DHT22;59358;52.134;5.596;2022-12-18T13:50:56;0.80;99.90
19206;DHT22;59358;52.134;5.596;2022-12-18T13:53:27;0.80;99.90
19206;DHT22;59358;52.134;5.596;2022-12-18T13:55:54;0.80;99.90
19206;DHT22;59358;52.134;5.596;2022-12-18T13:58:21;0.80;99.90
19206;DHT22;59358;52.134;5.596;2022-12-18T14:00:48;0.80;99.90
19206;DHT22;59358;52.134;5.596;2022-12-18T14:03:18;0.80;99.90
19206;DHT22;59358;52.134;5.596;2022-12-18T14:05:46;0.90;99.90
19206;DHT22;59358;52.134;5.596;2022-12-18T14:08:22;0.80;99.90
19206;DHT22;59358;52.134;5.596;2022-12-18T14:10:50;0.90;99.90
19206;DHT22;59358;52.134;5.596;2022-12-18T14:13:26;0.90;99.90
19206;DHT22;59358;52.134;5.596;2022-12-18T14:15:55;0.80;99.90
19206;DHT22;59358;52.134;5.596;2022-12-18T14:18:25;0.80;99.90
19206;DHT22;59358;52.134;5.596;2022-12-18T14:20:54;0.80;99.90
19206;DHT22;59358;52.134;5.596;2022-12-18T14:23:31;0.80;99.90
19206;DHT22;59358;52.134;5.596;2022-12-18T14:25:59;0.80;99.90
19206;DHT22;59358;52.134;5.596;2022-12-18T14:28:26;0.70;99.90
19206;DHT22;59358;52.134;5.596;2022-12-18T14:30:54;0.70;99.90
19206;DHT22;59358;52.134;5.596;2022-12-18T14:33:23;0.80;99.90
19206;DHT22;59358;52.134;5.596;2022-12-18T14:35:56;0.80;99.90
19206;DHT22;59358;52.134;5.596;2022-12-18T14:38:30;0.80;99.90
19206;DHT22;59358;52.134;5.596;2022-12-18T14:40:58;0.80;99.90
19206;DHT22;59358;52.134;5.596;2022-12-18T14:43:26;0.80;99.90
19206;DHT22;59358;52.134;5.596;2022-12-18T14:45:53;0.80;99.90
19206;DHT22;59358;52.134;5.596;2022-12-18T14:48:24;0.80;99.90
19206;DHT22;59358;52.134;5.596;2022-12-18T14:50:59;0.80;99.90
19206;DHT22;59358;52.134;5.596;2022-12-18T14:53:36;0.70;99.90
19206;DHT22;59358;52.134;5.596;2022-12-18T14:56:16;0.70;99.90
19206;DHT22;59358;52.134;5.596;2022-12-18T14:58:51;0.70;99.90
19206;DHT22;59358;52.134;5.596;2022-12-18T15:01:22;0.70;99.90
19206;DHT22;59358;52.134;5.596;2022-12-18T15:03:50;0.70;99.90
19206;DHT22;59358;52.134;5.596;2022-12-18T15:06:21;0.70;99.90
19206;DHT22;59358;52.134;5.596;2022-12-18T15:08:52;0.70;99.90
19206;DHT22;59358;52.134;5.596;2022-12-18T15:11:27;0.70;99.90
19206;DHT22;59358;52.134;5.596;2022-12-18T15:13:54;0.70;99.90
19206;DHT22;59358;52.134;5.596;2022-12-18T15:16:21;0.60;99.90
19206;DHT22;59358;52.134;5.596;2022-12-18T15:18:48;0.60;99.90
19206;DHT22;59358;52.134;5.596;2022-12-18T15:21:18;0.60;99.90
19206;DHT22;59358;52.134;5.596;2022-12-18T15:23:47;0.60;99.90
19206;DHT22;59358;52.134;5.596;2022-12-18T15:26:17;0.60;99.90
19206;DHT22;59358;52.134;5.596;2022-12-18T15:28:47;0.60;99.90
19206;DHT22;59358;52.134;5.596;2022-12-18T15:31:24;0.60;99.90
19206;DHT22;59358;52.134;5.596;2022-12-18T15:34:10;0.60;99.90
19206;DHT22;59358;52.134;5.596;2022-12-18T15:36:37;0.70;99.90
19206;DHT22;59358;52.134;5.596;2022-12-18T15:39:05;0.70;99.90
19206;DHT22;59358;52.134;5.596;2022-12-18T15:41:35;0.70;99.90
19206;DHT22;59358;52.134;5.596;2022-12-18T15:44:02;0.70;99.90
19206;DHT22;59358;52.134;5.596;2022-12-18T15:46:29;0.70;99.90
19206;DHT22;59358;52.134;5.596;2022-12-18T15:48:56;0.70;99.90
19206;DHT22;59358;52.134;5.596;2022-12-18T15:51:26;0.70;99.90
19206;DHT22;59358;52.134;5.596;2022-12-18T15:53:55;0.70;99.90
19206;DHT22;59358;52.134;5.596;2022-12-18T15:56:22;0.70;99.90
19206;DHT22;59358;52.134;5.596;2022-12-18T15:59:11;0.70;99.90
19206;DHT22;59358;52.134;5.596;2022-12-18T16:01:39;0.60;99.90